Terminal Aerodrome Forecast
Issued by NWS

Home | Current Version | Previous Version | Graphics & Text | Print | Product List | Glossary On
Versions: 1 2 3 4 5 6 7 8 9 10 11 12 13 14 15 16 17 18 19
000
FTUS42 KMHX 111100
TAFISO
TAF
KISO 111137Z 1112/1212 00000KT 6SM BR BKN015
      TEMPO 1112/1114 4SM BR OVC004
     FM111400 VRB03KT P6SM VCSH BKN020
     FM111800 21005KT P6SM VCTS SCT020 BKN040CB
     FM120000 VRB03KT P6SM SCT035
      AMD LTD TO CLD VIS AND WIND=

USA.gov is the U.S. government's official web portal to all federal, state and local government web resources and services.